Decoded Metar for KEGV (EAGLE RIVER in WI, USA) (IATA:EGV) | Meteo·Mobile Aviation Weather
aviador You're here:

KEGV Decoded Metar

EAGLE RIVER in WI, USA
Report Time2019-01-23 06:55:00
UTC Time2019-01-23 06:56:19
Flight Rules mvfr MVFR
Wind310° at 03 kt
W.Decomp.*RWY 31: 3.0 kt HW 0.1 kt RCW
RWY 04: 0.1 kt HW 3 kt LCW
W.Rank310° ranks 13
Current wind is below 310° avg. (8.2)
Visibility9999 m
Phenomena:Light Snow
Clouds:Overcast 018 Hf
Expected CloudBase > 800 ft AGL from Temp-Dew spread
Ceiling1,800 ft
Temp-11°C (ISA -23)
Dew Point-13°C (85% RH)
AAT-15.3°C
QNH1012 hPa
Density Alt-1,125 ft
Elevation1,640 ft
Report Wrong Elevation
Raw Report
KEGV 230655Z AUTO 31003KT 10SM -SN OVC018 M11/M13 A2988 RMK AO2
T11081131=

Extra information for KEGV:More info

Metar Taf Metar & Taf Last 4 Metars F.Rules Stats Wind Profile Meteogram Temp Stats Airport Information Weather charts Add Link Nearby VenuesMetar ALERT Operation Metar Decoded Social comments

AIRNAV info for KEGV